sensor_id;sensor_type;location;lat;lon;timestamp;pressure;altitude;pressure_sealevel;temperature;humidity
69173;BME280;56280;49.662;8.408;2023-06-10T00:02:20;100334.66;;;20.83;58.77
69173;BME280;56280;49.662;8.408;2023-06-10T00:04:45;100345.16;;;20.93;58.99
69173;BME280;56280;49.662;8.408;2023-06-10T00:07:11;100342.13;;;21.03;58.57
69173;BME280;56280;49.662;8.408;2023-06-10T00:09:37;100354.47;;;20.90;59.07
69173;BME280;56280;49.662;8.408;2023-06-10T00:12:07;100351.63;;;20.55;59.73
69173;BME280;56280;49.662;8.408;2023-06-10T00:14:35;100340.59;;;20.50;59.78
69173;BME280;56280;49.662;8.408;2023-06-10T00:17:00;100346.13;;;20.64;59.18
69173;BME280;56280;49.662;8.408;2023-06-10T00:19:26;100335.16;;;20.65;59.23
69173;BME280;56280;49.662;8.408;2023-06-10T00:21:55;100347.09;;;20.77;59.73
69173;BME280;56280;49.662;8.408;2023-06-10T00:24:20;100332.75;;;20.34;60.29
69173;BME280;56280;49.662;8.408;2023-06-10T00:26:45;100347.25;;;20.11;61.21
69173;BME280;56280;49.662;8.408;2023-06-10T00:29:11;100348.69;;;19.92;61.59
69173;BME280;56280;49.662;8.408;2023-06-10T00:31:37;100339.41;;;19.65;62.42
69173;BME280;56280;49.662;8.408;2023-06-10T00:34:03;100341.00;;;19.15;64.32
69173;BME280;56280;49.662;8.408;2023-06-10T00:36:28;100332.72;;;19.16;63.93
69173;BME280;56280;49.662;8.408;2023-06-10T00:38:54;100326.03;;;19.27;63.10
69173;BME280;56280;49.662;8.408;2023-06-10T00:41:19;100344.25;;;19.55;63.03
69173;BME280;56280;49.662;8.408;2023-06-10T00:43:45;100344.53;;;19.60;63.02
69173;BME280;56280;49.662;8.408;2023-06-10T00:46:11;100349.47;;;19.56;63.45
69173;BME280;56280;49.662;8.408;2023-06-10T00:48:38;100343.88;;;19.28;63.58
69173;BME280;56280;49.662;8.408;2023-06-10T00:51:05;100354.34;;;19.08;64.43
69173;BME280;56280;49.662;8.408;2023-06-10T00:53:31;100326.56;;;19.07;64.53
69173;BME280;56280;49.662;8.408;2023-06-10T00:55:57;100326.31;;;19.47;63.52
69173;BME280;56280;49.662;8.408;2023-06-10T00:58:24;100347.13;;;19.83;62.20
69173;BME280;56280;49.662;8.408;2023-06-10T01:00:50;100341.28;;;19.79;62.04
69173;BME280;56280;49.662;8.408;2023-06-10T01:03:16;100352.13;;;19.86;61.73
69173;BME280;56280;49.662;8.408;2023-06-10T01:05:42;100353.75;;;19.80;62.04
69173;BME280;56280;49.662;8.408;2023-06-10T01:08:19;100353.19;;;19.40;63.36
69173;BME280;56280;49.662;8.408;2023-06-10T01:10:53;100330.19;;;19.00;63.65
69173;BME280;56280;49.662;8.408;2023-06-10T01:13:22;100353.31;;;19.24;63.24
69173;BME280;56280;49.662;8.408;2023-06-10T01:15:49;100357.88;;;19.23;63.15
69173;BME280;56280;49.662;8.408;2023-06-10T01:18:15;100355.38;;;19.22;63.07
69173;BME280;56280;49.662;8.408;2023-06-10T01:20:42;100350.72;;;19.16;63.66
69173;BME280;56280;49.662;8.408;2023-06-10T01:23:09;100358.94;;;19.37;62.99
69173;BME280;56280;49.662;8.408;2023-06-10T01:25:40;100352.97;;;19.12;62.81
69173;BME280;56280;49.662;8.408;2023-06-10T01:30:44;100361.28;;;19.02;63.62
69173;BME280;56280;49.662;8.408;2023-06-10T01:33:13;100329.72;;;19.11;62.59
69173;BME280;56280;49.662;8.408;2023-06-10T01:35:44;100334.97;;;19.27;62.01
69173;BME280;56280;49.662;8.408;2023-06-10T01:38:12;100348.72;;;19.33;61.61
69173;BME280;56280;49.662;8.408;2023-06-10T01:40:40;100363.28;;;19.23;62.30
69173;BME280;56280;49.662;8.408;2023-06-10T01:43:06;100351.84;;;19.06;62.15
69173;BME280;56280;49.662;8.408;2023-06-10T01:45:31;100359.06;;;19.06;62.15
69173;BME280;56280;49.662;8.408;2023-06-10T01:47:56;100363.53;;;19.13;62.35
69173;BME280;56280;49.662;8.408;2023-06-10T01:50:21;100354.13;;;18.94;62.51
69173;BME280;56280;49.662;8.408;2023-06-10T01:52:47;100361.56;;;18.92;62.98
69173;BME280;56280;49.662;8.408;2023-06-10T01:55:12;100354.53;;;18.83;63.38
69173;BME280;56280;49.662;8.408;2023-06-10T01:57:37;100362.88;;;18.97;62.92
69173;BME280;56280;49.662;8.408;2023-06-10T02:00:03;100355.03;;;18.87;63.57
69173;BME280;56280;49.662;8.408;2023-06-10T02:02:28;100365.88;;;18.55;64.34
69173;BME280;56280;49.662;8.408;2023-06-10T02:04:54;100353.72;;;18.36;65.24
69173;BME280;56280;49.662;8.408;2023-06-10T02:07:20;100365.25;;;18.22;65.91
69173;BME280;56280;49.662;8.408;2023-06-10T02:09:45;100347.63;;;18.19;66.06
69173;BME280;56280;49.662;8.408;2023-06-10T02:12:10;100352.28;;;18.26;65.43
69173;BME280;56280;49.662;8.408;2023-06-10T02:14:36;100362.38;;;18.23;65.47
69173;BME280;56280;49.662;8.408;2023-06-10T02:17:02;100356.66;;;18.27;66.20
69173;BME280;56280;49.662;8.408;2023-06-10T02:19:27;100357.06;;;18.15;66.39
69173;BME280;56280;49.662;8.408;2023-06-10T02:21:53;100367.44;;;18.18;66.38
69173;BME280;56280;49.662;8.408;2023-06-10T02:24:18;100367.53;;;18.33;66.26
69173;BME280;56280;49.662;8.408;2023-06-10T02:26:44;100360.06;;;18.44;65.94
69173;BME280;56280;49.662;8.408;2023-06-10T02:29:10;100356.47;;;18.51;65.37
69173;BME280;56280;49.662;8.408;2023-06-10T02:31:36;100363.00;;;18.57;65.78
69173;BME280;56280;49.662;8.408;2023-06-10T02:34:01;100356.81;;;18.25;66.37
69173;BME280;56280;49.662;8.408;2023-06-10T02:36:28;100371.53;;;18.37;66.38
69173;BME280;56280;49.662;8.408;2023-06-10T02:38:53;100366.81;;;18.16;67.00
69173;BME280;56280;49.662;8.408;2023-06-10T02:41:18;100371.09;;;18.26;66.90
69173;BME280;56280;49.662;8.408;2023-06-10T02:43:44;100366.75;;;18.25;66.69
69173;BME280;56280;49.662;8.408;2023-06-10T02:46:09;100377.56;;;18.16;67.06
69173;BME280;56280;49.662;8.408;2023-06-10T02:48:45;100376.91;;;18.06;67.72
69173;BME280;56280;49.662;8.408;2023-06-10T02:51:11;100375.50;;;17.87;67.51
69173;BME280;56280;49.662;8.408;2023-06-10T02:53:36;100376.34;;;17.88;67.79
69173;BME280;56280;49.662;8.408;2023-06-10T02:56:02;100366.56;;;17.86;67.88
69173;BME280;56280;49.662;8.408;2023-06-10T02:58:27;100361.00;;;17.96;67.63
69173;BME280;56280;49.662;8.408;2023-06-10T03:00:53;100363.22;;;17.93;67.78
69173;BME280;56280;49.662;8.408;2023-06-10T03:03:18;100352.53;;;17.76;67.99
69173;BME280;56280;49.662;8.408;2023-06-10T03:05:43;100373.50;;;17.89;67.85
69173;BME280;56280;49.662;8.408;2023-06-10T03:08:09;100369.94;;;17.80;67.94
69173;BME280;56280;49.662;8.408;2023-06-10T03:10:34;100388.75;;;17.89;67.69
69173;BME280;56280;49.662;8.408;2023-06-10T03:12:59;100370.69;;;17.74;68.25
69173;BME280;56280;49.662;8.408;2023-06-10T03:15:25;100372.88;;;17.62;68.54
69173;BME280;56280;49.662;8.408;2023-06-10T03:17:50;100339.75;;;17.30;68.78
69173;BME280;56280;49.662;8.408;2023-06-10T03:20:15;100373.38;;;17.66;68.53
69173;BME280;56280;49.662;8.408;2023-06-10T03:22:42;100368.06;;;17.49;69.15
69173;BME280;56280;49.662;8.408;2023-06-10T03:25:07;100374.47;;;17.48;69.34
69173;BME280;56280;49.662;8.408;2023-06-10T03:27:39;100368.72;;;17.60;69.33
69173;BME280;56280;49.662;8.408;2023-06-10T03:30:05;100378.09;;;17.64;68.82
69173;BME280;56280;49.662;8.408;2023-06-10T03:32:31;100386.97;;;17.64;69.48
69173;BME280;56280;49.662;8.408;2023-06-10T03:34:56;100363.44;;;17.19;70.66
69173;BME280;56280;49.662;8.408;2023-06-10T03:37:22;100375.19;;;17.26;70.23
69173;BME280;56280;49.662;8.408;2023-06-10T03:39:48;100375.78;;;17.44;69.60
69173;BME280;56280;49.662;8.408;2023-06-10T03:42:13;100379.91;;;17.72;68.92
69173;BME280;56280;49.662;8.408;2023-06-10T03:44:38;100376.72;;;17.76;68.31
69173;BME280;56280;49.662;8.408;2023-06-10T03:47:04;100395.94;;;17.96;68.01
69173;BME280;56280;49.662;8.408;2023-06-10T03:49:29;100395.72;;;18.06;67.80
69173;BME280;56280;49.662;8.408;2023-06-10T03:51:55;100401.44;;;18.11;67.62
69173;BME280;56280;49.662;8.408;2023-06-10T03:54:21;100383.19;;;17.98;67.60
69173;BME280;56280;49.662;8.408;2023-06-10T03:56:46;100382.03;;;17.93;67.90
69173;BME280;56280;49.662;8.408;2023-06-10T03:59:13;100390.81;;;18.18;67.77
69173;BME280;56280;49.662;8.408;2023-06-10T04:01:38;100408.91;;;18.32;67.46
69173;BME280;56280;49.662;8.408;2023-06-10T04:04:06;100402.53;;;18.25;68.16
69173;BME280;56280;49.662;8.408;2023-06-10T04:06:31;100392.47;;;18.19;68.00
69173;BME280;56280;49.662;8.408;2023-06-10T04:08:56;100400.19;;;18.22;68.15
69173;BME280;56280;49.662;8.408;2023-06-10T04:11:23;100387.63;;;18.46;67.15
69173;BME280;56280;49.662;8.408;2023-06-10T04:13:49;100405.91;;;18.73;67.13
69173;BME280;56280;49.662;8.408;2023-06-10T04:16:14;100395.63;;;18.77;66.31
69173;BME280;56280;49.662;8.408;2023-06-10T04:18:40;100363.22;;;18.70;65.82
69173;BME280;56280;49.662;8.408;2023-06-10T04:21:07;100404.38;;;19.02;65.80
69173;BME280;56280;49.662;8.408;2023-06-10T04:23:32;100378.00;;;18.98;65.81
69173;BME280;56280;49.662;8.408;2023-06-10T04:25:57;100403.19;;;19.05;66.03
69173;BME280;56280;49.662;8.408;2023-06-10T04:28:24;100403.09;;;19.13;65.89
69173;BME280;56280;49.662;8.408;2023-06-10T04:30:50;100406.97;;;19.34;65.30
69173;BME280;56280;49.662;8.408;2023-06-10T04:33:15;100418.09;;;19.30;65.59
69173;BME280;56280;49.662;8.408;2023-06-10T04:35:41;100411.94;;;19.22;66.34
69173;BME280;56280;49.662;8.408;2023-06-10T04:38:07;100420.34;;;19.42;66.62
69173;BME280;56280;49.662;8.408;2023-06-10T04:40:32;100405.28;;;19.33;66.42
69173;BME280;56280;49.662;8.408;2023-06-10T04:42:57;100416.97;;;19.40;66.68
69173;BME280;56280;49.662;8.408;2023-06-10T04:45:23;100416.13;;;19.77;65.70
69173;BME280;56280;49.662;8.408;2023-06-10T04:47:48;100417.66;;;19.57;66.13
69173;BME280;56280;49.662;8.408;2023-06-10T04:50:13;100407.06;;;19.55;66.83
69173;BME280;56280;49.662;8.408;2023-06-10T04:52:39;100419.81;;;19.23;67.01
69173;BME280;56280;49.662;8.408;2023-06-10T04:55:06;100412.00;;;19.13;68.65
69173;BME280;56280;49.662;8.408;2023-06-10T04:57:32;100414.81;;;19.35;68.66
69173;BME280;56280;49.662;8.408;2023-06-10T04:59:57;100425.22;;;19.38;68.40
69173;BME280;56280;49.662;8.408;2023-06-10T05:02:22;100419.59;;;20.22;64.83
69173;BME280;56280;49.662;8.408;2023-06-10T05:04:48;100426.44;;;20.25;63.14
69173;BME280;56280;49.662;8.408;2023-06-10T05:07:13;100405.53;;;20.12;65.78
69173;BME280;56280;49.662;8.408;2023-06-10T05:09:38;100420.66;;;20.28;65.30
69173;BME280;56280;49.662;8.408;2023-06-10T05:12:04;100424.28;;;19.84;65.71
69173;BME280;56280;49.662;8.408;2023-06-10T05:14:30;100416.38;;;19.82;68.84
69173;BME280;56280;49.662;8.408;2023-06-10T05:16:56;100417.47;;;19.88;67.95
69173;BME280;56280;49.662;8.408;2023-06-10T05:19:22;100417.09;;;19.46;68.13
69173;BME280;56280;49.662;8.408;2023-06-10T05:21:47;100422.34;;;19.40;67.79
69173;BME280;56280;49.662;8.408;2023-06-10T05:24:13;100423.56;;;19.37;68.80
69173;BME280;56280;49.662;8.408;2023-06-10T05:26:38;100421.06;;;19.65;66.72
69173;BME280;56280;49.662;8.408;2023-06-10T05:29:05;100423.31;;;20.07;64.74
69173;BME280;56280;49.662;8.408;2023-06-10T05:31:30;100418.44;;;19.80;65.97
69173;BME280;56280;49.662;8.408;2023-06-10T05:33:55;100425.69;;;19.95;64.74
69173;BME280;56280;49.662;8.408;2023-06-10T05:36:21;100432.69;;;20.26;65.36
69173;BME280;56280;49.662;8.408;2023-06-10T05:38:46;100423.41;;;20.50;64.83
69173;BME280;56280;49.662;8.408;2023-06-10T05:41:12;100436.88;;;20.86;64.58
69173;BME280;56280;49.662;8.408;2023-06-10T05:43:37;100429.06;;;20.55;62.91
69173;BME280;56280;49.662;8.408;2023-06-10T05:46:02;100419.34;;;19.88;64.20
69173;BME280;56280;49.662;8.408;2023-06-10T05:48:27;100416.28;;;19.91;63.97
69173;BME280;56280;49.662;8.408;2023-06-10T05:50:53;100443.19;;;20.35;65.04
69173;BME280;56280;49.662;8.408;2023-06-10T05:53:18;100431.69;;;21.06;62.19
69173;BME280;56280;49.662;8.408;2023-06-10T05:55:45;100447.03;;;20.84;60.63
69173;BME280;56280;49.662;8.408;2023-06-10T05:58:11;100448.34;;;20.52;61.66
69173;BME280;56280;49.662;8.408;2023-06-10T06:00:38;100454.38;;;20.69;60.38
69173;BME280;56280;49.662;8.408;2023-06-10T06:03:03;100441.19;;;20.81;61.15
69173;BME280;56280;49.662;8.408;2023-06-10T06:05:28;100451.16;;;20.44;61.02
69173;BME280;56280;49.662;8.408;2023-06-10T06:08:00;100441.88;;;20.31;61.94
69173;BME280;56280;49.662;8.408;2023-06-10T06:10:25;100446.47;;;20.67;60.33
69173;BME280;56280;49.662;8.408;2023-06-10T06:12:50;100451.22;;;21.08;60.55
69173;BME280;56280;49.662;8.408;2023-06-10T06:15:16;100435.75;;;20.74;60.36
69173;BME280;56280;49.662;8.408;2023-06-10T06:17:41;100469.03;;;21.03;60.18
69173;BME280;56280;49.662;8.408;2023-06-10T06:20:07;100455.66;;;20.73;61.47
69173;BME280;56280;49.662;8.408;2023-06-10T06:22:32;100418.63;;;21.38;58.81
69173;BME280;56280;49.662;8.408;2023-06-10T06:24:57;100443.63;;;21.47;58.89
69173;BME280;56280;49.662;8.408;2023-06-10T06:27:23;100434.88;;;21.73;57.75
69173;BME280;56280;49.662;8.408;2023-06-10T06:29:48;100452.47;;;22.39;56.95
69173;BME280;56280;49.662;8.408;2023-06-10T06:32:13;100442.16;;;22.69;56.57
69173;BME280;56280;49.662;8.408;2023-06-10T06:34:38;100447.66;;;23.16;53.59
69173;BME280;56280;49.662;8.408;2023-06-10T06:37:04;100442.41;;;23.01;53.46
69173;BME280;56280;49.662;8.408;2023-06-10T06:39:29;100446.63;;;23.10;53.45
69173;BME280;56280;49.662;8.408;2023-06-10T06:41:55;100436.59;;;23.18;54.55
69173;BME280;56280;49.662;8.408;2023-06-10T06:44:20;100434.50;;;23.46;55.75
69173;BME280;56280;49.662;8.408;2023-06-10T06:46:45;100446.31;;;23.92;52.73
69173;BME280;56280;49.662;8.408;2023-06-10T06:49:10;100441.13;;;23.71;53.46
69173;BME280;56280;49.662;8.408;2023-06-10T06:51:36;100445.00;;;24.53;50.23
69173;BME280;56280;49.662;8.408;2023-06-10T06:54:02;100444.09;;;24.28;52.44
69173;BME280;56280;49.662;8.408;2023-06-10T06:56:27;100460.75;;;24.83;49.43
69173;BME280;56280;49.662;8.408;2023-06-10T06:58:53;100455.19;;;24.65;48.36
69173;BME280;56280;49.662;8.408;2023-06-10T07:01:18;100459.97;;;24.24;49.74
69173;BME280;56280;49.662;8.408;2023-06-10T07:03:43;100466.63;;;24.35;49.70
69173;BME280;56280;49.662;8.408;2023-06-10T07:06:09;100467.53;;;24.67;50.75
69173;BME280;56280;49.662;8.408;2023-06-10T07:08:35;100460.47;;;24.91;49.77
69173;BME280;56280;49.662;8.408;2023-06-10T07:11:00;100462.84;;;24.81;49.91
69173;BME280;56280;49.662;8.408;2023-06-10T07:13:25;100461.75;;;24.44;50.34
69173;BME280;56280;49.662;8.408;2023-06-10T07:15:51;100470.78;;;24.83;48.72
69173;BME280;56280;49.662;8.408;2023-06-10T07:18:16;100475.75;;;25.18;48.99
69173;BME280;56280;49.662;8.408;2023-06-10T07:20:42;100473.03;;;25.68;47.47
69173;BME280;56280;49.662;8.408;2023-06-10T07:23:08;100464.56;;;25.95;46.46
69173;BME280;56280;49.662;8.408;2023-06-10T07:25:33;100471.50;;;25.54;47.21
69173;BME280;56280;49.662;8.408;2023-06-10T07:27:58;100471.75;;;25.71;47.32
69173;BME280;56280;49.662;8.408;2023-06-10T07:30:23;100467.28;;;26.50;46.92
69173;BME280;56280;49.662;8.408;2023-06-10T07:32:49;100467.22;;;26.38;44.86
69173;BME280;56280;49.662;8.408;2023-06-10T07:35:14;100468.00;;;26.27;44.15
69173;BME280;56280;49.662;8.408;2023-06-10T07:37:39;100464.56;;;26.50;44.29
69173;BME280;56280;49.662;8.408;2023-06-10T07:40:05;100465.47;;;26.44;45.38
69173;BME280;56280;49.662;8.408;2023-06-10T07:42:34;100464.97;;;27.08;42.66
69173;BME280;56280;49.662;8.408;2023-06-10T07:44:59;100444.66;;;27.58;43.09
69173;BME280;56280;49.662;8.408;2023-06-10T07:47:24;100451.84;;;27.28;43.33
69173;BME280;56280;49.662;8.408;2023-06-10T07:49:50;100454.41;;;27.00;42.95
69173;BME280;56280;49.662;8.408;2023-06-10T07:52:15;100462.03;;;27.09;44.32
69173;BME280;56280;49.662;8.408;2023-06-10T07:54:40;100458.66;;;27.61;43.08
69173;BME280;56280;49.662;8.408;2023-06-10T07:57:06;100450.44;;;28.37;41.26
69173;BME280;56280;49.662;8.408;2023-06-10T07:59:34;100455.50;;;27.93;40.64
69173;BME280;56280;49.662;8.408;2023-06-10T08:02:00;100459.34;;;27.92;41.13
69173;BME280;56280;49.662;8.408;2023-06-10T08:04:25;100454.41;;;26.88;40.75
69173;BME280;56280;49.662;8.408;2023-06-10T08:06:50;100455.31;;;26.70;41.96
69173;BME280;56280;49.662;8.408;2023-06-10T08:09:16;100455.97;;;26.96;41.44
69173;BME280;56280;49.662;8.408;2023-06-10T08:11:41;100468.78;;;26.46;43.97
69173;BME280;56280;49.662;8.408;2023-06-10T08:14:07;100471.09;;;26.61;44.47
69173;BME280;56280;49.662;8.408;2023-06-10T08:16:32;100468.97;;;26.33;46.34
69173;BME280;56280;49.662;8.408;2023-06-10T08:18:57;100446.53;;;26.19;43.87
69173;BME280;56280;49.662;8.408;2023-06-10T08:21:22;100465.66;;;26.31;43.14
69173;BME280;56280;49.662;8.408;2023-06-10T08:23:52;100459.28;;;26.98;43.42
69173;BME280;56280;49.662;8.408;2023-06-10T08:26:17;100456.81;;;26.66;43.04
69173;BME280;56280;49.662;8.408;2023-06-10T08:28:43;100459.84;;;27.42;43.14
69173;BME280;56280;49.662;8.408;2023-06-10T08:31:08;100467.28;;;27.82;40.37
69173;BME280;56280;49.662;8.408;2023-06-10T08:33:33;100445.03;;;26.84;41.98
69173;BME280;56280;49.662;8.408;2023-06-10T08:35:58;100448.16;;;27.11;42.39
69173;BME280;56280;49.662;8.408;2023-06-10T08:38:24;100455.22;;;27.66;41.07
69173;BME280;56280;49.662;8.408;2023-06-10T08:40:56;100460.28;;;27.98;39.12
69173;BME280;56280;49.662;8.408;2023-06-10T08:43:34;100443.81;;;27.81;39.40
69173;BME280;56280;49.662;8.408;2023-06-10T08:46:02;100466.16;;;26.39;42.86
69173;BME280;56280;49.662;8.408;2023-06-10T08:48:29;100472.75;;;25.95;42.81
69173;BME280;56280;49.662;8.408;2023-06-10T08:50:57;100462.38;;;25.85;44.04
69173;BME280;56280;49.662;8.408;2023-06-10T08:53:24;100441.09;;;26.68;42.94
69173;BME280;56280;49.662;8.408;2023-06-10T08:55:51;100456.97;;;26.52;44.16
69173;BME280;56280;49.662;8.408;2023-06-10T08:58:20;100435.06;;;27.55;44.36
69173;BME280;56280;49.662;8.408;2023-06-10T09:00:45;100438.22;;;28.40;39.05
69173;BME280;56280;49.662;8.408;2023-06-10T09:03:11;100437.88;;;27.25;42.21
69173;BME280;56280;49.662;8.408;2023-06-10T09:05:37;100447.69;;;27.85;42.14
69173;BME280;56280;49.662;8.408;2023-06-10T09:08:04;100434.44;;;27.41;43.02
69173;BME280;56280;49.662;8.408;2023-06-10T09:10:30;100439.56;;;27.50;42.68
69173;BME280;56280;49.662;8.408;2023-06-10T09:12:56;100440.66;;;26.95;43.38
69173;BME280;56280;49.662;8.408;2023-06-10T09:15:22;100436.84;;;26.05;43.10
69173;BME280;56280;49.662;8.408;2023-06-10T09:17:47;100442.56;;;26.33;43.93
69173;BME280;56280;49.662;8.408;2023-06-10T09:20:13;100440.75;;;26.27;44.97
69173;BME280;56280;49.662;8.408;2023-06-10T09:22:38;100426.16;;;25.66;44.81
69173;BME280;56280;49.662;8.408;2023-06-10T09:25:08;100439.19;;;25.82;45.03
69173;BME280;56280;49.662;8.408;2023-06-10T09:27:48;100415.00;;;25.93;44.24
69173;BME280;56280;49.662;8.408;2023-06-10T09:30:27;100433.81;;;25.94;43.13
69173;BME280;56280;49.662;8.408;2023-06-10T09:32:54;100425.06;;;25.92;43.47
69173;BME280;56280;49.662;8.408;2023-06-10T09:35:27;100421.56;;;26.52;45.56
69173;BME280;56280;49.662;8.408;2023-06-10T09:37:57;100421.50;;;27.13;43.88
69173;BME280;56280;49.662;8.408;2023-06-10T09:40:22;100415.91;;;26.54;42.40
69173;BME280;56280;49.662;8.408;2023-06-10T09:43:01;100407.13;;;27.06;43.17
69173;BME280;56280;49.662;8.408;2023-06-10T09:45:30;100408.97;;;26.70;43.97
69173;BME280;56280;49.662;8.408;2023-06-10T09:47:56;100415.06;;;26.53;41.65
69173;BME280;56280;49.662;8.408;2023-06-10T09:50:21;100411.03;;;26.56;44.43
69173;BME280;56280;49.662;8.408;2023-06-10T09:52:47;100392.31;;;26.48;40.70
69173;BME280;56280;49.662;8.408;2023-06-10T09:55:15;100419.06;;;26.51;42.37
69173;BME280;56280;49.662;8.408;2023-06-10T09:57:41;100412.81;;;26.92;44.69
69173;BME280;56280;49.662;8.408;2023-06-10T10:00:10;100396.84;;;27.55;43.38
69173;BME280;56280;49.662;8.408;2023-06-10T10:02:49;100391.47;;;27.84;40.06
69173;BME280;56280;49.662;8.408;2023-06-10T10:05:16;100392.66;;;28.00;41.04
69173;BME280;56280;49.662;8.408;2023-06-10T10:07:43;100382.75;;;27.58;41.29
69173;BME280;56280;49.662;8.408;2023-06-10T10:10:09;100404.16;;;27.90;41.44
69173;BME280;56280;49.662;8.408;2023-06-10T10:12:35;100398.25;;;27.10;40.13
69173;BME280;56280;49.662;8.408;2023-06-10T10:15:02;100394.22;;;27.25;40.73
69173;BME280;56280;49.662;8.408;2023-06-10T10:17:27;100390.69;;;27.60;39.68
69173;BME280;56280;49.662;8.408;2023-06-10T10:19:58;100398.69;;;27.78;38.97
69173;BME280;56280;49.662;8.408;2023-06-10T10:22:30;100396.69;;;28.26;37.88
69173;BME280;56280;49.662;8.408;2023-06-10T10:24:57;100390.50;;;28.60;36.30
69173;BME280;56280;49.662;8.408;2023-06-10T10:27:28;100394.41;;;28.98;36.12
69173;BME280;56280;49.662;8.408;2023-06-10T10:29:57;100388.88;;;28.76;36.13
69173;BME280;56280;49.662;8.408;2023-06-10T10:32:31;100388.25;;;29.41;34.82
69173;BME280;56280;49.662;8.408;2023-06-10T10:35:23;100386.59;;;29.40;34.78
69173;BME280;56280;49.662;8.408;2023-06-10T10:37:54;100367.41;;;29.18;35.19
69173;BME280;56280;49.662;8.408;2023-06-10T10:40:21;100377.38;;;29.86;32.95
69173;BME280;56280;49.662;8.408;2023-06-10T10:42:49;100377.88;;;30.32;32.42
69173;BME280;56280;49.662;8.408;2023-06-10T10:45:14;100399.28;;;28.96;37.54
69173;BME280;56280;49.662;8.408;2023-06-10T10:47:41;100396.59;;;28.21;38.28
69173;BME280;56280;49.662;8.408;2023-06-10T10:50:16;100362.22;;;27.56;39.06
69173;BME280;56280;49.662;8.408;2023-06-10T10:53:02;100383.03;;;27.74;37.49
69173;BME280;56280;49.662;8.408;2023-06-10T10:55:28;100382.19;;;27.85;38.51
69173;BME280;56280;49.662;8.408;2023-06-10T10:57:58;100356.13;;;28.35;34.99
69173;BME280;56280;49.662;8.408;2023-06-10T11:00:31;100378.72;;;28.59;37.92
69173;BME280;56280;49.662;8.408;2023-06-10T11:05:43;100384.94;;;27.97;37.58
69173;BME280;56280;49.662;8.408;2023-06-10T11:08:13;100387.72;;;27.61;39.14
69173;BME280;56280;49.662;8.408;2023-06-10T11:10:41;100365.66;;;27.92;35.59
69173;BME280;56280;49.662;8.408;2023-06-10T11:15:38;100378.34;;;28.10;36.90
69173;BME280;56280;49.662;8.408;2023-06-10T11:18:26;100377.34;;;27.87;35.93
69173;BME280;56280;49.662;8.408;2023-06-10T11:20:56;100366.75;;;28.31;36.17
69173;BME280;56280;49.662;8.408;2023-06-10T11:31:22;100373.47;;;28.12;38.60
69173;BME280;56280;49.662;8.408;2023-06-10T11:33:52;100378.72;;;27.90;36.64
69173;BME280;56280;49.662;8.408;2023-06-10T11:36:18;100347.53;;;27.97;37.79
69173;BME280;56280;49.662;8.408;2023-06-10T11:38:43;100335.03;;;28.30;36.33
69173;BME280;56280;49.662;8.408;2023-06-10T11:41:10;100354.66;;;27.98;39.07
69173;BME280;56280;49.662;8.408;2023-06-10T11:43:36;100360.44;;;27.26;42.01
69173;BME280;56280;49.662;8.408;2023-06-10T11:46:01;100359.97;;;28.05;37.25
69173;BME280;56280;49.662;8.408;2023-06-10T11:48:27;100344.88;;;28.31;37.65
69173;BME280;56280;49.662;8.408;2023-06-10T11:50:55;100363.66;;;28.73;37.06
69173;BME280;56280;49.662;8.408;2023-06-10T11:53:20;100351.78;;;28.34;39.21
69173;BME280;56280;49.662;8.408;2023-06-10T11:55:47;100355.72;;;28.43;35.84
69173;BME280;56280;49.662;8.408;2023-06-10T11:58:17;100359.16;;;28.50;37.96
69173;BME280;56280;49.662;8.408;2023-06-10T12:03:14;100351.28;;;27.56;35.52
69173;BME280;56280;49.662;8.408;2023-06-10T12:05:40;100333.44;;;27.89;38.90
69173;BME280;56280;49.662;8.408;2023-06-10T12:08:09;100346.88;;;28.36;34.84
69173;BME280;56280;49.662;8.408;2023-06-10T12:10:40;100328.28;;;28.50;37.03
69173;BME280;56280;49.662;8.408;2023-06-10T12:13:06;100343.19;;;28.59;35.05
69173;BME280;56280;49.662;8.408;2023-06-10T12:15:31;100321.38;;;28.30;35.59
69173;BME280;56280;49.662;8.408;2023-06-10T12:17:57;100334.44;;;28.57;36.92
69173;BME280;56280;49.662;8.408;2023-06-10T12:20:27;100345.38;;;28.28;35.57
69173;BME280;56280;49.662;8.408;2023-06-10T12:22:53;100326.63;;;28.49;36.24
69173;BME280;56280;49.662;8.408;2023-06-10T12:25:24;100338.03;;;28.46;35.59
69173;BME280;56280;49.662;8.408;2023-06-10T12:27:51;100338.13;;;28.34;35.88
69173;BME280;56280;49.662;8.408;2023-06-10T12:30:23;100319.84;;;28.68;35.19
69173;BME280;56280;49.662;8.408;2023-06-10T12:32:50;100305.28;;;28.80;35.82
69173;BME280;56280;49.662;8.408;2023-06-10T12:35:17;100331.75;;;28.96;33.45
69173;BME280;56280;49.662;8.408;2023-06-10T12:38:04;100339.22;;;28.50;32.73
69173;BME280;56280;49.662;8.408;2023-06-10T12:40:33;100346.88;;;28.53;33.71
69173;BME280;56280;49.662;8.408;2023-06-10T12:42:59;100348.97;;;28.46;33.30
69173;BME280;56280;49.662;8.408;2023-06-10T12:45:32;100329.28;;;28.95;32.05
69173;BME280;56280;49.662;8.408;2023-06-10T12:48:09;100334.66;;;28.89;33.47
69173;BME280;56280;49.662;8.408;2023-06-10T12:50:39;100338.91;;;28.97;33.09
69173;BME280;56280;49.662;8.408;2023-06-10T12:53:05;100337.25;;;28.62;32.28
69173;BME280;56280;49.662;8.408;2023-06-10T12:55:31;100327.81;;;28.70;34.26
69173;BME280;56280;49.662;8.408;2023-06-10T12:57:57;100340.75;;;28.46;32.67
69173;BME280;56280;49.662;8.408;2023-06-10T13:00:23;100324.38;;;28.46;34.21
69173;BME280;56280;49.662;8.408;2023-06-10T13:02:51;100330.34;;;28.14;33.19
69173;BME280;56280;49.662;8.408;2023-06-10T13:05:17;100320.94;;;28.22;33.81
69173;BME280;56280;49.662;8.408;2023-06-10T13:07:44;100330.81;;;28.40;34.23